Open Full Screen Window  High Contrast Mode
Wind Gusting 00 knots
04
August 17, 2018 7:11 AM EDT
Present Weather: Mist
Weather Information
Wind Direction
  200 °
Wind Speed
  04 kt (5 mph)
Wind Gust
  00 kt (0 mph)
Altimeter
30.00 in
Visibility
4 SM
Temperature
22° C
72° F
Dewpoint
21° C
70° F
Humidity
94%
1hr Rain Fall
00.00 in.
24hr Rain Fall
00.23 in.
Sky Condition
Broken @ 1,100 ft
Broken @ 500 ft
IFR

METAR KDLZ 171111Z AUTO 20004KT 4SM BR BKN005 BKN011 22/21 A3000 RMK AO2

FAA Disclaimer: The data displayed is for advisory purposes only and is not to be used for flight planning or operations.